createdAt,value
2017-06-08T00:02:09.362Z,95273.30
2017-06-08T00:04:36.916Z,95287.97
2017-06-08T00:07:04.457Z,95291.08
2017-06-08T00:09:32.041Z,95312.23
2017-06-08T00:11:59.594Z,95346.72
2017-06-08T00:14:27.128Z,95334.94
2017-06-08T00:16:54.696Z,95333.20
2017-06-08T00:19:22.250Z,95323.82
2017-06-08T00:21:49.801Z,95314.81
2017-06-08T00:24:17.423Z,95312.83
2017-06-08T00:26:45.086Z,95317.11
2017-06-08T00:29:12.630Z,95332.58
2017-06-08T00:31:40.218Z,95330.83
2017-06-08T00:34:07.771Z,95325.57
2017-06-08T00:36:35.310Z,95324.39
2017-06-08T00:39:02.941Z,95329.30
2017-06-08T00:41:30.486Z,95326.34
2017-06-08T00:43:58.042Z,95314.99
2017-06-08T00:46:25.686Z,95319.70
2017-06-08T00:48:53.227Z,95299.16
2017-06-08T00:51:20.762Z,95314.44
2017-06-08T00:53:48.345Z,95313.83
2017-06-08T00:56:15.894Z,95327.34
2017-06-08T00:58:43.430Z,95333.96
2017-06-08T01:01:11.379Z,95339.25
2017-06-08T01:03:38.915Z,95346.69
2017-06-08T01:06:06.454Z,95359.42
2017-06-08T01:08:34.023Z,95355.73
2017-06-08T01:11:01.618Z,95351.00
2017-06-08T01:13:29.163Z,95347.48
2017-06-08T01:15:56.742Z,95340.64
2017-06-08T01:18:24.276Z,95342.19
2017-06-08T01:20:51.822Z,95337.70
2017-06-08T01:23:19.406Z,95333.55
2017-06-08T01:25:46.933Z,95333.98
2017-06-08T01:28:14.475Z,95339.26
2017-06-08T01:30:42.239Z,95333.00
2017-06-08T01:33:09.809Z,95327.74
2017-06-08T01:35:37.346Z,95330.08
2017-06-08T01:38:04.918Z,95329.09
2017-06-08T01:40:32.450Z,95333.22
2017-06-08T01:43:00.005Z,95336.36
2017-06-08T01:45:27.604Z,95330.66
2017-06-08T01:47:55.138Z,95327.12
2017-06-08T01:50:22.710Z,95328.61
2017-06-08T01:52:50.290Z,95345.77
2017-06-08T01:55:17.829Z,95342.71
2017-06-08T01:57:45.363Z,95336.59
2017-06-08T02:00:13.186Z,95337.92
2017-06-08T02:02:40.742Z,95336.94
2017-06-08T02:05:08.273Z,95338.88
2017-06-08T02:07:35.889Z,95338.62
2017-06-08T02:10:03.432Z,95335.28
2017-06-08T02:12:30.986Z,95298.66
2017-06-08T02:14:58.583Z,95316.51
2017-06-08T02:17:26.126Z,95311.89
2017-06-08T02:19:53.666Z,95314.80
2017-06-08T02:22:21.246Z,95304.38
2017-06-08T02:24:48.827Z,95308.30
2017-06-08T02:27:16.374Z,95315.72
2017-06-08T02:29:43.950Z,95307.92
2017-06-08T02:32:11.530Z,95306.59
2017-06-08T02:34:39.075Z,95251.20
2017-06-08T02:37:06.639Z,95290.53
2017-06-08T02:39:34.230Z,95285.81
2017-06-08T02:42:01.780Z,95255.91
2017-06-08T02:44:29.319Z,95279.78
2017-06-08T02:46:56.897Z,95283.48
2017-06-08T02:49:24.441Z,95289.89
2017-06-08T02:51:51.979Z,95287.05
2017-06-08T02:54:19.566Z,95299.45
2017-06-08T02:56:47.103Z,95321.21
2017-06-08T02:59:14.643Z,95322.64
2017-06-08T03:01:42.216Z,95335.97
2017-06-08T03:04:09.757Z,95329.60
2017-06-08T03:06:37.284Z,95333.14
2017-06-08T03:09:04.909Z,95344.11
2017-06-08T03:11:32.459Z,95340.00
2017-06-08T03:14:00.005Z,95348.39
2017-06-08T03:16:27.584Z,95347.83
2017-06-08T03:18:55.122Z,95347.84
2017-06-08T03:21:22.662Z,95353.52
2017-06-08T03:23:50.257Z,95309.06
2017-06-08T03:26:17.792Z,95353.52
2017-06-08T03:28:45.337Z,95350.00
2017-06-08T03:31:12.910Z,95350.19
2017-06-08T03:33:40.462Z,95342.52
2017-06-08T03:36:08.001Z,95312.02
2017-06-08T03:38:35.595Z,95332.02
2017-06-08T03:41:03.130Z,95337.70
2017-06-08T03:43:30.684Z,95341.61
2017-06-08T03:45:58.269Z,95346.91
2017-06-08T03:48:25.815Z,95345.73
2017-06-08T03:50:53.361Z,95351.79
2017-06-08T03:53:20.944Z,95354.09
2017-06-08T03:55:48.537Z,95350.21
2017-06-08T03:58:16.099Z,95354.55
2017-06-08T04:00:43.674Z,95353.13
2017-06-08T04:03:11.243Z,95358.45
2017-06-08T04:05:38.787Z,95366.87
2017-06-08T04:08:06.370Z,95373.73
2017-06-08T04:10:33.910Z,95376.83
2017-06-08T04:13:01.450Z,95375.66
2017-06-08T04:15:29.022Z,95388.19
2017-06-08T04:17:56.559Z,95388.56
2017-06-08T04:20:24.098Z,95394.45
2017-06-08T04:22:51.686Z,95397.16
2017-06-08T04:25:19.226Z,95389.72
2017-06-08T04:27:46.769Z,95390.51
2017-06-08T04:30:14.956Z,95395.01
2017-06-08T04:32:42.502Z,95397.92
2017-06-08T04:35:10.041Z,95395.59
2017-06-08T04:37:37.647Z,95397.13
2017-06-08T04:40:05.201Z,95400.57
2017-06-08T04:42:32.779Z,95407.39
2017-06-08T04:45:00.352Z,95404.50
2017-06-08T04:47:27.994Z,95403.52
2017-06-08T04:49:55.537Z,95406.48
2017-06-08T04:52:23.134Z,95413.61
2017-06-08T04:54:50.674Z,95414.92
2017-06-08T04:57:18.204Z,95416.30
2017-06-08T04:59:45.778Z,95413.33
2017-06-08T05:02:13.358Z,95419.63
2017-06-08T05:04:40.903Z,95421.98
2017-06-08T05:07:08.779Z,95423.20
2017-06-08T05:09:36.355Z,95435.75
2017-06-08T05:12:03.899Z,95430.30
2017-06-08T05:14:31.442Z,95426.53
2017-06-08T05:16:59.022Z,95428.11
2017-06-08T05:19:26.563Z,95430.69
2017-06-08T05:21:54.099Z,95433.98
2017-06-08T05:24:21.701Z,95435.77
2017-06-08T05:26:49.245Z,95431.66
2017-06-08T05:29:16.779Z,95434.80
2017-06-08T05:31:44.354Z,95441.25
2017-06-08T05:34:11.893Z,95443.41
2017-06-08T05:36:39.433Z,95433.42
2017-06-08T05:39:07.014Z,95436.17
2017-06-08T05:41:34.546Z,95432.22
2017-06-08T05:44:02.087Z,95433.82
2017-06-08T05:46:29.662Z,95431.47
2017-06-08T05:48:57.199Z,95430.68
2017-06-08T05:51:24.739Z,95435.70
2017-06-08T05:53:52.304Z,95432.79
2017-06-08T05:56:19.840Z,95437.88
2017-06-08T05:58:47.375Z,95435.48
2017-06-08T06:01:14.949Z,95439.53
2017-06-08T06:03:42.477Z,95431.80
2017-06-08T06:06:10.014Z,95441.30
2017-06-08T06:08:37.607Z,95450.59
2017-06-08T06:11:05.147Z,95455.67
2017-06-08T06:13:32.679Z,95455.83
2017-06-08T06:16:00.249Z,95451.38
2017-06-08T06:18:27.787Z,95458.37
2017-06-08T06:20:55.326Z,95465.02
2017-06-08T06:23:22.903Z,95460.62
2017-06-08T06:25:50.439Z,95458.92
2017-06-08T06:28:18.294Z,95462.73
2017-06-08T06:30:45.866Z,95474.75
2017-06-08T06:33:13.402Z,95477.25
2017-06-08T06:35:40.935Z,95476.65
2017-06-08T06:38:08.498Z,95484.70
2017-06-08T06:40:36.034Z,95490.41
2017-06-08T06:43:03.561Z,95493.81
2017-06-08T06:45:31.130Z,95492.50
2017-06-08T06:47:58.661Z,95501.61
2017-06-08T06:50:26.192Z,95505.09
2017-06-08T06:52:53.759Z,95499.18
2017-06-08T06:55:21.298Z,95497.61
2017-06-08T06:57:48.834Z,95504.37
2017-06-08T07:00:16.419Z,95512.30
2017-06-08T07:02:43.950Z,95507.25
2017-06-08T07:05:11.481Z,95504.66
2017-06-08T07:07:39.048Z,95506.85
2017-06-08T07:10:06.582Z,95507.83
2017-06-08T07:12:34.122Z,95511.05
2017-06-08T07:15:01.701Z,95514.98
2017-06-08T07:17:29.235Z,95517.71
2017-06-08T07:19:56.770Z,95525.02
2017-06-08T07:22:24.338Z,95529.35
2017-06-08T07:24:51.874Z,95526.80
2017-06-08T07:27:19.406Z,95527.09
2017-06-08T07:29:46.974Z,95535.45
2017-06-08T07:32:14.537Z,95538.36
2017-06-08T07:34:42.066Z,95530.41
2017-06-08T07:37:09.621Z,95537.31
2017-06-08T07:39:37.195Z,95543.53
2017-06-08T07:42:04.732Z,95549.97
2017-06-08T07:44:32.272Z,95550.64
2017-06-08T07:46:59.837Z,95543.75
2017-06-08T07:49:27.372Z,95543.98
2017-06-08T07:51:54.907Z,95536.17
2017-06-08T07:54:22.477Z,95538.19
2017-06-08T07:56:50.026Z,95541.66
2017-06-08T07:59:17.586Z,95548.75
2017-06-08T08:01:56.865Z,95543.84
2017-06-08T08:04:24.448Z,95544.69
2017-06-08T08:06:51.984Z,95547.68
2017-06-08T08:09:19.544Z,95543.96
2017-06-08T08:11:47.086Z,95539.30
2017-06-08T08:14:14.619Z,95541.45
2017-06-08T08:16:42.201Z,95540.05
2017-06-08T08:19:09.730Z,95542.45
2017-06-08T08:21:37.269Z,95545.96
2017-06-08T08:24:04.825Z,95546.66
2017-06-08T08:26:32.361Z,95539.31
2017-06-08T08:28:59.890Z,95551.92
2017-06-08T08:31:27.464Z,95543.73
2017-06-08T08:33:55.009Z,95547.23
2017-06-08T08:36:22.553Z,95559.43
2017-06-08T08:38:50.117Z,95554.79
2017-06-08T08:41:17.647Z,95556.23
2017-06-08T08:43:45.181Z,95565.95
2017-06-08T08:46:12.752Z,95567.48
2017-06-08T08:48:40.282Z,95558.44
2017-06-08T08:51:07.878Z,95569.14
2017-06-08T08:53:35.441Z,95574.02
2017-06-08T08:56:02.976Z,95569.77
2017-06-08T08:58:30.526Z,95565.42
2017-06-08T09:00:58.103Z,95578.70
2017-06-08T09:03:25.641Z,95583.62
2017-06-08T09:05:53.172Z,95580.65
2017-06-08T09:08:20.755Z,95577.35
2017-06-08T09:10:48.289Z,95603.64
2017-06-08T09:13:15.821Z,95581.25
2017-06-08T09:15:43.394Z,95580.67
2017-06-08T09:18:10.923Z,95576.48
2017-06-08T09:20:38.469Z,95588.92
2017-06-08T09:23:06.026Z,95589.16
2017-06-08T09:25:33.560Z,95593.59
2017-06-08T09:28:01.091Z,95606.30
2017-06-08T09:30:28.654Z,95604.46
2017-06-08T09:32:56.190Z,95597.52
2017-06-08T09:35:23.728Z,95609.17
2017-06-08T09:37:51.293Z,95616.73
2017-06-08T09:40:18.832Z,95608.59
2017-06-08T09:42:46.372Z,95611.00
2017-06-08T09:45:14.003Z,95604.13
2017-06-08T09:47:41.545Z,95598.99
2017-06-08T09:50:09.112Z,95575.28
2017-06-08T09:52:36.686Z,95600.16
2017-06-08T09:55:04.219Z,95607.75
2017-06-08T09:57:31.753Z,95606.97
2017-06-08T09:59:59.339Z,95606.74
2017-06-08T10:02:26.917Z,95611.93
2017-06-08T10:04:54.449Z,95602.58
2017-06-08T10:07:21.983Z,95595.66
2017-06-08T10:09:49.548Z,95584.98
2017-06-08T10:12:17.086Z,95576.25
2017-06-08T10:14:44.630Z,95579.45
2017-06-08T10:17:12.191Z,95562.48
2017-06-08T10:19:39.726Z,95587.35
2017-06-08T10:22:07.263Z,95575.75
2017-06-08T10:24:34.845Z,95575.88
2017-06-08T10:27:02.379Z,95587.14
2017-06-08T10:29:29.918Z,95587.34
2017-06-08T10:31:57.489Z,95587.65
2017-06-08T10:34:25.020Z,95582.94
2017-06-08T10:36:52.558Z,95559.63
2017-06-08T10:39:20.125Z,95589.13
2017-06-08T10:41:47.654Z,95584.20
2017-06-08T10:44:15.255Z,95577.63
2017-06-08T10:46:42.826Z,95578.73
2017-06-08T10:49:10.354Z,95570.24
2017-06-08T10:51:37.884Z,95564.42
2017-06-08T10:54:05.454Z,95555.70
2017-06-08T10:56:33.001Z,95557.09
2017-06-08T10:59:00.533Z,95562.50
2017-06-08T11:01:28.103Z,95559.97
2017-06-08T11:03:55.946Z,95565.30
2017-06-08T11:06:23.485Z,95548.19
2017-06-08T11:08:51.054Z,95566.08
2017-06-08T11:11:18.599Z,95560.22
2017-06-08T11:13:46.130Z,95561.92
2017-06-08T11:16:13.705Z,95541.92
2017-06-08T11:18:41.230Z,95563.22
2017-06-08T11:21:08.773Z,95560.84
2017-06-08T11:23:36.342Z,95556.85
2017-06-08T11:26:03.884Z,95571.66
2017-06-08T11:28:31.419Z,95574.13
2017-06-08T11:30:58.984Z,95572.95
2017-06-08T11:33:26.537Z,95573.17
2017-06-08T11:35:54.069Z,95583.34
2017-06-08T11:38:21.641Z,95575.91
2017-06-08T11:40:49.186Z,95582.45
2017-06-08T11:43:16.723Z,95585.56
2017-06-08T11:45:44.303Z,95588.15
2017-06-08T11:48:11.835Z,95582.64
2017-06-08T11:50:39.369Z,95597.13
2017-06-08T11:53:06.981Z,95595.19
2017-06-08T11:55:34.510Z,95599.91
2017-06-08T11:58:02.096Z,95597.70
2017-06-08T12:00:29.830Z,95596.45
2017-06-08T12:02:57.363Z,95605.44
2017-06-08T12:05:25.793Z,95593.95
2017-06-08T12:07:53.479Z,95597.83
2017-06-08T12:10:21.001Z,95603.41
2017-06-08T12:12:48.531Z,95602.15
2017-06-08T12:15:16.106Z,95609.54
2017-06-08T12:17:43.651Z,95602.33
2017-06-08T12:20:11.196Z,95607.62
2017-06-08T12:22:39.531Z,95616.33
2017-06-08T12:25:07.064Z,95603.66
2017-06-08T12:27:34.602Z,95612.64
2017-06-08T12:30:02.166Z,95608.70
2017-06-08T12:32:29.781Z,95607.12
2017-06-08T12:34:57.316Z,95611.82
2017-06-08T12:37:24.922Z,95602.56
2017-06-08T12:39:52.511Z,95597.84
2017-06-08T12:42:20.051Z,95605.77
2017-06-08T12:44:47.582Z,95603.80
2017-06-08T12:47:15.142Z,95597.66
2017-06-08T12:49:42.690Z,95599.07
2017-06-08T12:52:10.225Z,95603.16
2017-06-08T12:54:37.806Z,95597.64
2017-06-08T12:57:05.342Z,95596.30
2017-06-08T12:59:32.906Z,95598.00
2017-06-08T13:02:00.473Z,95601.31
2017-06-08T13:04:28.007Z,95596.95
2017-06-08T13:06:55.545Z,95590.00
2017-06-08T13:09:23.105Z,95604.92
2017-06-08T13:11:50.642Z,95600.38
2017-06-08T13:14:18.193Z,95611.22
2017-06-08T13:16:45.782Z,95600.23
2017-06-08T13:19:13.326Z,95598.46
2017-06-08T13:21:40.867Z,95589.21
2017-06-08T13:24:08.511Z,95588.13
2017-06-08T13:26:36.050Z,95591.18
2017-06-08T13:29:03.591Z,95591.83
2017-06-08T13:31:31.174Z,95599.33
2017-06-08T13:33:58.705Z,95596.91
2017-06-08T13:36:26.232Z,95591.65
2017-06-08T13:38:53.796Z,95592.73
2017-06-08T13:41:21.333Z,95593.24
2017-06-08T13:43:48.865Z,95589.45
2017-06-08T13:46:16.433Z,95584.56
2017-06-08T13:48:45.700Z,95586.44
2017-06-08T13:51:13.291Z,95594.23
2017-06-08T13:53:41.401Z,95595.45
2017-06-08T13:56:08.928Z,95597.39
2017-06-08T13:58:36.464Z,95587.23
2017-06-08T14:01:04.050Z,95589.61
2017-06-08T14:03:33.364Z,95595.36
2017-06-08T14:06:01.526Z,95583.73
2017-06-08T14:08:29.095Z,95580.80
2017-06-08T14:10:56.651Z,95584.83
2017-06-08T14:13:24.196Z,95593.39
2017-06-08T14:15:51.787Z,95579.47
2017-06-08T14:18:19.504Z,95580.03
2017-06-08T14:20:47.042Z,95589.39
2017-06-08T14:23:14.607Z,95579.41
2017-06-08T14:25:42.133Z,95578.13
2017-06-08T14:28:09.667Z,95574.27
2017-06-08T14:30:37.649Z,95574.95
2017-06-08T14:33:05.558Z,95566.72
2017-06-08T14:35:33.209Z,95622.66
2017-06-08T14:38:01.075Z,95578.45
2017-06-08T14:40:28.625Z,95572.93
2017-06-08T14:42:56.227Z,95555.67
2017-06-08T14:45:23.794Z,95569.12
2017-06-08T14:47:51.327Z,95563.86
2017-06-08T14:50:18.859Z,95565.54
2017-06-08T14:52:51.375Z,95563.89
2017-06-08T14:55:18.962Z,95560.85
2017-06-08T14:57:46.522Z,95566.00
2017-06-08T15:00:14.250Z,95570.07
2017-06-08T15:02:41.798Z,95540.44
2017-06-08T15:05:09.323Z,95562.62
2017-06-08T15:07:36.919Z,95560.38
2017-06-08T15:10:04.475Z,95552.21
2017-06-08T15:12:32.054Z,95544.06
2017-06-08T15:14:59.634Z,95541.33
2017-06-08T15:17:27.219Z,95534.48
2017-06-08T15:19:54.750Z,95521.75
2017-06-08T15:22:22.318Z,95517.45
2017-06-08T15:24:50.121Z,95507.80
2017-06-08T15:27:17.670Z,95520.06
2017-06-08T15:29:45.246Z,95523.17
2017-06-08T15:32:13.211Z,95512.28
2017-06-08T15:34:40.894Z,95483.33
2017-06-08T15:37:08.437Z,95533.45
2017-06-08T15:39:36.009Z,95516.92
2017-06-08T15:42:03.546Z,95507.88
2017-06-08T15:44:31.086Z,95512.17
2017-06-08T15:46:58.658Z,95514.09
2017-06-08T15:49:26.977Z,95516.48
2017-06-08T15:51:54.514Z,95516.45
2017-06-08T15:54:22.102Z,95524.98
2017-06-08T15:56:49.643Z,95524.62
2017-06-08T15:59:17.184Z,95520.20
2017-06-08T16:01:44.795Z,95522.33
2017-06-08T16:04:12.335Z,95515.19
2017-06-08T16:06:39.882Z,95525.74
2017-06-08T16:09:07.460Z,95527.62
2017-06-08T16:11:34.999Z,95532.34
2017-06-08T16:14:03.088Z,95504.36
2017-06-08T16:16:31.014Z,95530.32
2017-06-08T16:18:58.862Z,95538.20
2017-06-08T16:21:26.807Z,95529.95
2017-06-08T16:23:54.381Z,95535.36
2017-06-08T16:26:21.920Z,95542.30
2017-06-08T16:28:49.476Z,95529.81
2017-06-08T16:31:17.091Z,95542.69
2017-06-08T16:33:44.622Z,95528.25
2017-06-08T16:36:12.166Z,95533.70
2017-06-08T16:38:39.751Z,95525.28
2017-06-08T16:41:07.335Z,95531.52
2017-06-08T16:43:34.879Z,95531.58
2017-06-08T16:46:03.455Z,95532.02
2017-06-08T16:48:37.238Z,95533.22
2017-06-08T16:51:05.680Z,95534.05
2017-06-08T16:53:34.977Z,95541.69
2017-06-08T16:56:06.917Z,95541.34
2017-06-08T16:58:37.808Z,95543.42
2017-06-08T17:01:05.411Z,95537.88
2017-06-08T17:03:34.128Z,95537.33
2017-06-08T17:06:01.695Z,95549.92
2017-06-08T17:08:29.307Z,95561.77
2017-06-08T17:10:56.850Z,95555.64
2017-06-08T17:13:24.391Z,95550.95
2017-06-08T17:15:53.091Z,95545.19
2017-06-08T17:18:21.098Z,95554.48
2017-06-08T17:20:48.725Z,95565.39
2017-06-08T17:23:16.719Z,95568.11
2017-06-08T17:25:44.351Z,95560.38
2017-06-08T17:28:11.994Z,95555.88
2017-06-08T17:30:39.710Z,95562.08
2017-06-08T17:33:07.542Z,95570.59
2017-06-08T17:35:35.083Z,95563.17
2017-06-08T17:38:02.677Z,95565.52
2017-06-08T17:40:30.226Z,95570.64
2017-06-08T17:42:57.776Z,95573.70
2017-06-08T17:45:32.068Z,95571.59
2017-06-08T17:48:06.252Z,95574.51
2017-06-08T17:50:34.773Z,95574.34
2017-06-08T17:53:05.037Z,95585.31
2017-06-08T17:55:34.783Z,95578.16
2017-06-08T17:58:02.497Z,95586.93
2017-06-08T18:00:30.540Z,95582.59
2017-06-08T18:02:58.081Z,95581.17
2017-06-08T18:05:25.653Z,95581.01
2017-06-08T18:07:53.243Z,95587.59
2017-06-08T18:10:20.890Z,95589.31
2017-06-08T18:12:48.661Z,95585.34
2017-06-08T18:15:17.125Z,95591.59
2017-06-08T18:17:44.726Z,95596.16
2017-06-08T18:20:12.505Z,95597.23
2017-06-08T18:22:40.107Z,95597.28
2017-06-08T18:25:07.660Z,95595.30
2017-06-08T18:27:35.214Z,95592.74
2017-06-08T18:30:10.538Z,95557.97
2017-06-08T18:32:38.127Z,95600.78
2017-06-08T18:35:05.678Z,95596.83
2017-06-08T18:37:33.238Z,95596.15
2017-06-08T18:40:00.842Z,95596.46
2017-06-08T18:42:28.390Z,95598.41
2017-06-08T18:44:55.932Z,95601.30
2017-06-08T18:47:23.510Z,95600.94
2017-06-08T18:49:51.056Z,95605.25
2017-06-08T18:52:18.589Z,95603.39
2017-06-08T18:54:46.165Z,95603.47
2017-06-08T18:57:13.703Z,95613.58
2017-06-08T18:59:41.246Z,95588.63
2017-06-08T19:02:08.831Z,95610.14
2017-06-08T19:04:36.388Z,95604.19
2017-06-08T19:07:03.933Z,95596.48
2017-06-08T19:09:31.514Z,95591.41
2017-06-08T19:12:05.076Z,95593.84
2017-06-08T19:14:32.743Z,95601.96
2017-06-08T19:17:04.650Z,95605.63
2017-06-08T19:19:34.773Z,95596.44
2017-06-08T19:22:03.841Z,95607.81
2017-06-08T19:24:34.991Z,95600.16
2017-06-08T19:27:02.888Z,95606.55
2017-06-08T19:29:38.447Z,95603.61
2017-06-08T19:32:14.209Z,95606.69
2017-06-08T19:37:28.694Z,95610.58
2017-06-08T19:40:06.101Z,95609.96
2017-06-08T19:42:46.072Z,95609.41
2017-06-08T19:45:16.852Z,95610.73
2017-06-08T19:47:51.381Z,95607.50
2017-06-08T19:50:20.528Z,95608.00
2017-06-08T19:52:52.330Z,95613.18
2017-06-08T19:55:35.766Z,95615.79
2017-06-08T19:58:15.483Z,95613.19
2017-06-08T20:00:44.401Z,95615.50
2017-06-08T20:03:12.005Z,95609.47
2017-06-08T20:05:39.672Z,95609.41
2017-06-08T20:08:07.299Z,95612.83
2017-06-08T20:10:34.837Z,95612.20
2017-06-08T20:13:02.591Z,95611.89
2017-06-08T20:15:30.218Z,95615.37
2017-06-08T20:17:57.812Z,95614.45
2017-06-08T20:20:25.690Z,95616.20
2017-06-08T20:22:54.214Z,95612.70
2017-06-08T20:25:21.756Z,95615.62
2017-06-08T20:27:49.304Z,95589.56
2017-06-08T20:30:16.888Z,95613.27
2017-06-08T20:32:44.454Z,95594.05
2017-06-08T20:35:12.000Z,95603.16
2017-06-08T20:37:39.584Z,95597.27
2017-06-08T20:40:07.150Z,95599.60
2017-06-08T20:42:34.698Z,95596.27
2017-06-08T20:45:02.287Z,95590.64
2017-06-08T20:47:29.840Z,95593.73
2017-06-08T20:49:57.382Z,95583.20
2017-06-08T20:52:25.359Z,95586.12
2017-06-08T20:54:52.914Z,95584.25
2017-06-08T20:57:20.455Z,95590.98
2017-06-08T20:59:48.034Z,95594.41
2017-06-08T21:02:15.606Z,95591.89
2017-06-08T21:04:43.157Z,95569.78
2017-06-08T21:07:10.692Z,95592.46
2017-06-08T21:09:38.243Z,95586.85
2017-06-08T21:12:05.755Z,95585.70
2017-06-08T21:14:33.295Z,95580.89
2017-06-08T21:17:00.860Z,95583.38
2017-06-08T21:19:28.392Z,95577.03
2017-06-08T21:21:55.926Z,95571.68
2017-06-08T21:24:23.501Z,95570.70
2017-06-08T21:26:51.062Z,95570.56
2017-06-08T21:29:18.611Z,95571.30
2017-06-08T21:31:46.213Z,95574.88
2017-06-08T21:34:13.714Z,95563.74
2017-06-08T21:36:41.270Z,95570.52
2017-06-08T21:39:08.836Z,95567.02
2017-06-08T21:41:36.393Z,95567.79
2017-06-08T21:44:03.922Z,95571.45
2017-06-08T21:46:31.498Z,95563.56
2017-06-08T21:48:59.021Z,95570.67
2017-06-08T21:51:26.557Z,95570.52
2017-06-08T21:53:54.134Z,95570.97
2017-06-08T21:56:21.669Z,95568.40
2017-06-08T21:58:49.210Z,95562.92
2017-06-08T22:01:16.799Z,95560.38
2017-06-08T22:03:44.336Z,95558.22
2017-06-08T22:06:11.950Z,95558.09
2017-06-08T22:08:39.534Z,95560.60
2017-06-08T22:11:07.065Z,95557.30
2017-06-08T22:13:34.589Z,95553.62
2017-06-08T22:16:02.166Z,95554.14
2017-06-08T22:18:29.712Z,95549.16
2017-06-08T22:20:57.260Z,95545.16
2017-06-08T22:23:24.831Z,95541.80
2017-06-08T22:25:52.367Z,95544.05
2017-06-08T22:28:20.145Z,95543.11
2017-06-08T22:30:47.710Z,95550.95
2017-06-08T22:33:15.244Z,95527.77
2017-06-08T22:35:42.801Z,95521.61
2017-06-08T22:38:10.381Z,95529.10
2017-06-08T22:40:37.914Z,95533.87
2017-06-08T22:43:05.462Z,95530.17
2017-06-08T22:45:33.043Z,95515.73
2017-06-08T22:48:00.578Z,95518.02
2017-06-08T22:50:28.155Z,95513.78
2017-06-08T22:52:55.754Z,95511.16
2017-06-08T22:55:23.290Z,95489.58
2017-06-08T22:57:50.836Z,95493.99
2017-06-08T23:00:18.418Z,95505.41
2017-06-08T23:02:45.955Z,95503.93
2017-06-08T23:05:13.498Z,95505.56
2017-06-08T23:07:41.218Z,95499.96
2017-06-08T23:10:08.799Z,95500.23
2017-06-08T23:12:36.342Z,95497.09
2017-06-08T23:15:03.963Z,95505.67
2017-06-08T23:17:31.510Z,95496.43
2017-06-08T23:19:59.066Z,95495.62
2017-06-08T23:22:26.795Z,95488.75
2017-06-08T23:24:54.359Z,95485.14
2017-06-08T23:27:21.925Z,95491.98
2017-06-08T23:29:49.516Z,95491.59
2017-06-08T23:32:17.089Z,95478.30
2017-06-08T23:34:44.618Z,95477.93
2017-06-08T23:37:12.167Z,95483.03
2017-06-08T23:39:39.736Z,95484.78
2017-06-08T23:42:07.286Z,95485.76
2017-06-08T23:44:34.833Z,95480.61
2017-06-08T23:47:02.417Z,95485.61
2017-06-08T23:49:29.943Z,95485.25
2017-06-08T23:51:57.473Z,95485.42
2017-06-08T23:54:25.063Z,95487.51
2017-06-08T23:56:52.595Z,95484.98
2017-06-08T23:59:20.126Z,95482.88
